createdAt,value
2019-05-29T00:01:38.606Z,68.70
2019-05-29T00:04:08.122Z,68.60
2019-05-29T00:06:36.738Z,68.70
2019-05-29T00:09:06.659Z,68.50
2019-05-29T00:11:35.323Z,68.50
2019-05-29T00:14:18.817Z,68.80
2019-05-29T00:16:35.181Z,68.70
2019-05-29T00:19:03.665Z,68.70
2019-05-29T00:21:32.119Z,68.70
2019-05-29T00:24:00.585Z,68.70
2019-05-29T00:26:28.983Z,68.60
2019-05-29T00:28:57.409Z,68.60
2019-05-29T00:31:25.862Z,68.70
2019-05-29T00:33:54.345Z,68.60
2019-05-29T00:36:23.122Z,68.50
2019-05-29T00:38:53.158Z,68.40
2019-05-29T00:41:21.930Z,68.50
2019-05-29T00:43:50.353Z,68.50
2019-05-29T00:46:18.822Z,68.50
2019-05-29T00:48:47.581Z,68.80
2019-05-29T00:51:17.119Z,68.80
2019-05-29T00:53:45.847Z,68.90
2019-05-29T00:56:14.667Z,68.70
2019-05-29T00:58:43.169Z,68.60
2019-05-29T01:01:13.295Z,68.80
2019-05-29T01:03:41.815Z,68.50
2019-05-29T01:06:10.272Z,68.70
2019-05-29T01:08:38.738Z,68.70
2019-05-29T01:11:07.149Z,68.80
2019-05-29T01:13:36.116Z,68.90
2019-05-29T01:16:04.863Z,69.20
2019-05-29T01:18:33.295Z,69.00
2019-05-29T01:21:01.739Z,69.00
2019-05-29T01:23:30.519Z,68.70
2019-05-29T01:25:58.936Z,68.60
2019-05-29T01:28:27.369Z,68.50
2019-05-29T01:30:55.837Z,68.50
2019-05-29T01:33:25.018Z,68.60
2019-05-29T01:35:53.832Z,68.60
2019-05-29T01:38:23.515Z,68.60
2019-05-29T01:40:52.332Z,68.70
2019-05-29T01:43:21.468Z,68.30
2019-05-29T01:45:50.312Z,68.30
2019-05-29T01:48:19.546Z,68.20
2019-05-29T01:50:48.172Z,68.40
2019-05-29T01:53:17.662Z,68.40
2019-05-29T01:55:46.428Z,68.50
2019-05-29T01:58:15.657Z,68.60
2019-05-29T02:00:45.029Z,68.60
2019-05-29T02:03:13.432Z,68.60
2019-05-29T02:05:41.849Z,68.50
2019-05-29T02:08:11.879Z,68.50
2019-05-29T02:10:40.631Z,68.50
2019-05-29T02:13:09.049Z,68.60
2019-05-29T02:15:37.794Z,68.80
2019-05-29T02:18:06.278Z,68.90
2019-05-29T02:20:34.751Z,68.80
2019-05-29T02:23:03.765Z,68.50
2019-05-29T02:25:32.188Z,68.60
2019-05-29T02:28:00.607Z,68.60
2019-05-29T02:30:30.903Z,68.50
2019-05-29T02:32:59.678Z,68.60
2019-05-29T02:35:29.593Z,68.50
2019-05-29T02:37:58.353Z,68.40
2019-05-29T02:40:29.464Z,68.40
2019-05-29T02:42:57.050Z,68.40
2019-05-29T02:45:49.341Z,68.20
2019-05-29T02:47:55.726Z,68.50
2019-05-29T02:50:24.573Z,68.50
2019-05-29T02:52:54.638Z,68.50
2019-05-29T02:55:24.360Z,68.60
2019-05-29T02:57:53.070Z,68.40
2019-05-29T03:00:41.245Z,68.50
2019-05-29T03:03:09.844Z,68.80
2019-05-29T03:05:38.602Z,68.40
2019-05-29T03:08:08.483Z,68.60
2019-05-29T03:10:37.095Z,68.70
2019-05-29T03:13:06.442Z,68.80
2019-05-29T03:15:35.409Z,68.70
2019-05-29T03:18:04.361Z,68.80
2019-05-29T03:20:34.434Z,68.30
2019-05-29T03:23:03.039Z,68.40
2019-05-29T03:25:32.625Z,68.70
2019-05-29T03:28:01.539Z,68.70
2019-05-29T03:30:34.890Z,68.60
2019-05-29T03:33:00.190Z,68.50
2019-05-29T03:35:33.623Z,68.50
2019-05-29T03:37:59.227Z,68.20
2019-05-29T03:40:29.023Z,68.10
2019-05-29T03:42:58.379Z,68.20
2019-05-29T03:45:28.682Z,68.20
2019-05-29T03:47:57.007Z,68.30
2019-05-29T03:50:26.590Z,68.40
2019-05-29T03:52:55.686Z,68.10
2019-05-29T03:55:24.105Z,67.70
2019-05-29T03:57:52.872Z,67.70
2019-05-29T04:00:21.627Z,67.10
2019-05-29T04:02:50.131Z,67.10
2019-05-29T04:05:18.923Z,66.80
2019-05-29T04:07:47.758Z,66.70
2019-05-29T04:10:19.688Z,66.80
2019-05-29T04:12:48.501Z,66.70
2019-05-29T04:15:17.195Z,66.70
2019-05-29T04:17:46.548Z,66.90
2019-05-29T04:20:16.505Z,66.80
2019-05-29T04:22:45.917Z,67.00
2019-05-29T04:25:14.773Z,66.60
2019-05-29T04:27:43.783Z,66.50
2019-05-29T04:30:13.054Z,66.40
2019-05-29T04:32:41.804Z,66.10
2019-05-29T04:35:10.854Z,66.20
2019-05-29T04:37:40.109Z,66.20
2019-05-29T04:40:09.011Z,66.40
2019-05-29T04:42:40.010Z,66.40
2019-05-29T04:45:09.088Z,65.90
2019-05-29T04:47:39.335Z,65.60
2019-05-29T04:50:09.435Z,65.70
2019-05-29T04:52:40.232Z,65.70
2019-05-29T04:55:08.967Z,65.70
2019-05-29T04:57:37.696Z,65.50
2019-05-29T05:00:07.173Z,65.20
2019-05-29T05:02:35.606Z,65.10
2019-05-29T05:05:06.384Z,65.00
2019-05-29T05:07:35.382Z,65.40
2019-05-29T05:10:05.139Z,65.50
2019-05-29T05:12:33.956Z,65.00
2019-05-29T05:15:04.291Z,64.40
2019-05-29T05:17:33.746Z,64.50
2019-05-29T05:20:02.660Z,64.40
2019-05-29T05:22:32.053Z,64.40
2019-05-29T05:25:06.855Z,64.30
2019-05-29T05:27:36.339Z,64.30
2019-05-29T05:30:09.064Z,64.40
2019-05-29T05:32:38.741Z,64.30
2019-05-29T05:35:09.402Z,64.40
2019-05-29T05:37:38.886Z,64.00
2019-05-29T05:40:07.934Z,64.20
2019-05-29T05:42:37.180Z,63.50
2019-05-29T05:45:08.509Z,63.40
2019-05-29T05:47:52.203Z,63.60
2019-05-29T05:50:08.135Z,63.60
2019-05-29T05:52:37.504Z,63.70
2019-05-29T05:55:06.643Z,63.90
2019-05-29T05:57:35.611Z,63.50
2019-05-29T06:00:06.879Z,63.30
2019-05-29T06:02:35.908Z,63.00
2019-05-29T06:05:06.014Z,63.20
2019-05-29T06:07:34.418Z,62.50
2019-05-29T06:10:03.385Z,62.90
2019-05-29T06:12:32.238Z,63.10
2019-05-29T06:15:01.074Z,62.60
2019-05-29T06:17:30.264Z,63.00
2019-05-29T06:19:58.675Z,62.70
2019-05-29T06:22:27.091Z,61.70
2019-05-29T06:24:56.958Z,61.60
2019-05-29T06:27:26.154Z,62.40
2019-05-29T06:29:54.574Z,62.20
2019-05-29T06:32:23.020Z,61.60
2019-05-29T06:34:51.457Z,60.30
2019-05-29T06:37:19.863Z,60.20
2019-05-29T06:39:48.579Z,59.70
2019-05-29T06:42:17.024Z,58.90
2019-05-29T06:44:48.410Z,59.20
2019-05-29T06:47:15.906Z,58.00
2019-05-29T06:49:44.459Z,58.00
2019-05-29T06:52:12.918Z,57.60
2019-05-29T06:54:42.080Z,57.10
2019-05-29T06:57:10.569Z,57.00
2019-05-29T06:59:40.327Z,57.30
2019-05-29T07:02:09.203Z,57.70
2019-05-29T07:04:38.295Z,57.60
2019-05-29T07:07:06.780Z,56.80
2019-05-29T07:09:36.800Z,57.90
2019-05-29T07:12:06.653Z,58.30
2019-05-29T07:14:36.105Z,57.80
2019-05-29T07:17:04.953Z,56.70
2019-05-29T07:19:47.561Z,57.00
2019-05-29T07:22:04.192Z,57.80
2019-05-29T07:24:32.625Z,57.40
2019-05-29T07:27:01.185Z,57.30
2019-05-29T07:29:29.577Z,56.60
2019-05-29T07:31:57.969Z,56.70
2019-05-29T07:34:26.440Z,56.30
2019-05-29T07:36:55.137Z,56.50
2019-05-29T07:39:23.550Z,56.00
2019-05-29T07:41:53.888Z,56.20
2019-05-29T07:44:22.595Z,56.40
2019-05-29T07:46:51.035Z,56.90
2019-05-29T07:49:19.590Z,57.00
2019-05-29T07:51:48.859Z,56.40
2019-05-29T07:54:17.356Z,56.30
2019-05-29T07:56:46.655Z,56.30
2019-05-29T07:59:15.167Z,56.20
2019-05-29T08:01:44.764Z,56.30
2019-05-29T08:04:13.325Z,56.40
2019-05-29T08:06:48.293Z,56.70
2019-05-29T08:09:11.883Z,56.40
2019-05-29T08:11:41.535Z,56.10
2019-05-29T08:14:10.123Z,56.40
2019-05-29T08:16:39.674Z,56.90
2019-05-29T08:19:08.324Z,56.80
2019-05-29T08:21:36.735Z,56.10
2019-05-29T08:24:05.210Z,55.90
2019-05-29T08:26:33.920Z,56.10
2019-05-29T08:29:02.496Z,57.20
2019-05-29T08:31:30.916Z,56.60
2019-05-29T08:33:59.327Z,55.80
2019-05-29T08:36:28.064Z,56.00
2019-05-29T08:38:58.151Z,55.80
2019-05-29T08:41:26.642Z,56.00
2019-05-29T08:43:55.076Z,55.70
2019-05-29T08:46:23.501Z,55.90
2019-05-29T08:48:52.417Z,54.20
2019-05-29T08:51:20.956Z,54.40
2019-05-29T08:53:52.072Z,53.60
2019-05-29T08:56:19.943Z,53.50
2019-05-29T08:58:48.450Z,53.10
2019-05-29T09:01:16.868Z,53.60
2019-05-29T09:03:46.649Z,53.00
2019-05-29T09:06:15.360Z,53.10
2019-05-29T09:08:45.880Z,52.40
2019-05-29T09:11:14.751Z,52.00
2019-05-29T09:13:43.175Z,52.20
2019-05-29T09:16:11.819Z,53.10
2019-05-29T09:18:40.263Z,53.40
2019-05-29T09:21:08.682Z,51.40
2019-05-29T09:23:37.080Z,50.40
2019-05-29T09:26:15.758Z,51.00
2019-05-29T09:28:36.087Z,49.70
2019-05-29T09:31:04.766Z,48.00
2019-05-29T09:33:33.217Z,47.20
2019-05-29T09:36:01.625Z,45.80
2019-05-29T09:38:30.031Z,45.30
2019-05-29T09:40:58.829Z,45.40
2019-05-29T09:43:30.639Z,45.50
2019-05-29T09:45:57.635Z,44.90
2019-05-29T09:48:28.567Z,43.40
2019-05-29T09:50:56.667Z,43.20
2019-05-29T09:53:25.353Z,43.00
2019-05-29T09:55:56.998Z,43.90
2019-05-29T09:58:24.308Z,45.60
2019-05-29T10:01:16.200Z,43.80
2019-05-29T10:03:23.009Z,45.50
2019-05-29T10:05:51.519Z,45.80
2019-05-29T10:08:20.012Z,46.80
2019-05-29T10:10:48.522Z,46.40
2019-05-29T10:13:17.324Z,46.40
2019-05-29T10:15:45.730Z,46.70
2019-05-29T10:18:31.537Z,46.40
2019-05-29T10:20:44.633Z,47.00
2019-05-29T10:23:13.318Z,45.90
2019-05-29T10:25:42.124Z,46.90
2019-05-29T10:28:10.793Z,47.70
2019-05-29T10:30:39.221Z,48.90
2019-05-29T10:33:08.100Z,48.30
2019-05-29T10:35:36.496Z,48.10
2019-05-29T10:38:05.668Z,48.10
2019-05-29T10:40:35.530Z,47.70
2019-05-29T10:43:04.001Z,48.70
2019-05-29T10:45:32.444Z,49.30
2019-05-29T10:48:00.901Z,48.70
2019-05-29T10:50:29.412Z,50.00
2019-05-29T10:52:57.823Z,50.20
2019-05-29T10:55:26.273Z,50.60
2019-05-29T10:57:55.169Z,49.60
2019-05-29T11:00:24.718Z,50.30
2019-05-29T11:02:55.815Z,50.70
2019-05-29T11:05:23.942Z,50.30
2019-05-29T11:07:52.391Z,49.80
2019-05-29T11:10:21.226Z,49.30
2019-05-29T11:12:50.617Z,49.40
2019-05-29T11:15:22.044Z,50.30
2019-05-29T11:17:51.427Z,49.70
2019-05-29T11:20:22.519Z,47.40
2019-05-29T11:22:51.725Z,47.60
2019-05-29T11:25:24.870Z,47.80
2019-05-29T11:27:51.851Z,47.70
2019-05-29T11:30:21.722Z,46.90
2019-05-29T11:32:53.051Z,47.50
2019-05-29T11:35:21.778Z,48.10
2019-05-29T11:37:50.535Z,48.50
2019-05-29T11:40:20.407Z,47.90
2019-05-29T11:42:49.102Z,47.00
2019-05-29T11:45:18.056Z,47.70
2019-05-29T11:47:46.860Z,48.40
2019-05-29T11:50:19.576Z,48.70
2019-05-29T11:52:46.332Z,48.70
2019-05-29T11:55:15.323Z,47.50
2019-05-29T11:57:43.739Z,47.40
2019-05-29T12:00:20.340Z,47.70
2019-05-29T12:02:46.227Z,47.60
2019-05-29T12:05:15.375Z,47.50
2019-05-29T12:07:43.812Z,46.50
2019-05-29T12:10:14.548Z,47.70
2019-05-29T12:12:43.053Z,48.10
2019-05-29T12:15:15.626Z,47.20
2019-05-29T12:17:42.130Z,46.90
2019-05-29T12:20:26.797Z,47.00
2019-05-29T12:23:06.596Z,47.30
2019-05-29T12:25:12.564Z,47.20
2019-05-29T12:27:41.283Z,47.70
2019-05-29T12:30:14.470Z,46.70
2019-05-29T12:32:43.261Z,47.20
2019-05-29T12:35:12.213Z,47.30
2019-05-29T12:37:41.671Z,47.10
2019-05-29T12:40:10.648Z,46.50
2019-05-29T12:42:39.058Z,47.10
2019-05-29T12:45:08.917Z,47.10
2019-05-29T12:47:38.238Z,47.40
2019-05-29T12:50:11.676Z,46.10
2019-05-29T12:52:40.528Z,46.80
2019-05-29T12:55:10.672Z,49.10
2019-05-29T12:57:39.122Z,48.00
2019-05-29T13:00:12.552Z,47.20
2019-05-29T13:02:41.624Z,47.60
2019-05-29T13:05:18.265Z,47.90
2019-05-29T13:07:41.669Z,48.10
2019-05-29T13:10:27.210Z,47.00
2019-05-29T13:12:43.340Z,47.00
2019-05-29T13:15:14.599Z,46.80
2019-05-29T13:17:43.717Z,46.90
2019-05-29T13:20:21.155Z,45.40
2019-05-29T13:22:42.946Z,45.90
2019-05-29T13:25:12.287Z,45.80
2019-05-29T13:27:40.707Z,45.10
2019-05-29T13:30:10.875Z,44.50
2019-05-29T13:32:39.774Z,44.40
2019-05-29T13:35:08.644Z,44.50
2019-05-29T13:37:37.383Z,44.30
2019-05-29T13:40:08.612Z,44.30
2019-05-29T13:42:37.197Z,44.60
2019-05-29T13:45:16.831Z,44.70
2019-05-29T13:47:37.430Z,44.80
2019-05-29T13:50:11.715Z,44.20
2019-05-29T13:52:38.102Z,43.90
2019-05-29T13:55:08.244Z,44.30
2019-05-29T13:57:39.751Z,45.00
2019-05-29T14:00:31.735Z,43.80
2019-05-29T14:02:39.432Z,44.10
2019-05-29T14:05:08.853Z,45.00
2019-05-29T14:07:37.384Z,44.80
2019-05-29T14:10:07.761Z,44.50
2019-05-29T14:12:38.171Z,45.60
2019-05-29T14:15:10.232Z,45.10
2019-05-29T14:17:39.037Z,44.50
2019-05-29T14:20:08.963Z,44.40
2019-05-29T14:22:37.629Z,44.90
2019-05-29T14:25:09.527Z,44.60
2019-05-29T14:27:38.783Z,44.10
2019-05-29T14:30:14.113Z,44.00
2019-05-29T14:32:42.539Z,44.50
2019-05-29T14:35:13.103Z,43.80
2019-05-29T14:37:41.373Z,44.50
2019-05-29T14:40:11.920Z,44.10
2019-05-29T14:42:41.463Z,43.90
2019-05-29T14:45:10.668Z,44.60
2019-05-29T14:47:39.451Z,43.80
2019-05-29T14:50:08.890Z,43.80
2019-05-29T14:52:37.650Z,43.70
2019-05-29T14:55:08.905Z,42.40
2019-05-29T14:57:37.992Z,42.50
2019-05-29T15:00:24.155Z,43.10
2019-05-29T15:02:43.267Z,43.10
2019-05-29T15:05:14.772Z,42.50
2019-05-29T15:07:43.440Z,42.60
2019-05-29T15:10:22.671Z,43.00
2019-05-29T15:12:42.559Z,43.10
2019-05-29T15:15:14.345Z,42.60
2019-05-29T15:17:41.876Z,42.40
2019-05-29T15:20:12.584Z,43.70
2019-05-29T15:22:41.703Z,43.50
2019-05-29T15:25:18.563Z,42.10
2019-05-29T15:27:41.137Z,41.90
2019-05-29T15:30:13.599Z,43.60
2019-05-29T15:32:40.994Z,43.40
2019-05-29T15:35:14.432Z,43.90
2019-05-29T15:37:40.513Z,43.30
2019-05-29T15:40:12.859Z,43.20
2019-05-29T15:42:42.087Z,42.10
2019-05-29T15:45:14.038Z,42.30
2019-05-29T15:47:42.666Z,42.90
2019-05-29T15:50:14.180Z,42.50
2019-05-29T15:52:43.906Z,43.00
2019-05-29T15:55:31.283Z,42.50
2019-05-29T15:57:43.844Z,42.60
2019-05-29T16:00:17.577Z,42.00
2019-05-29T16:02:49.041Z,41.50
2019-05-29T16:05:18.976Z,41.60
2019-05-29T16:07:47.705Z,41.70
2019-05-29T16:10:19.139Z,41.70
2019-05-29T16:12:47.363Z,41.50
2019-05-29T16:15:17.405Z,41.00
2019-05-29T16:17:46.186Z,40.70
2019-05-29T16:20:16.337Z,41.20
2019-05-29T16:22:45.173Z,40.90
2019-05-29T16:25:15.477Z,40.60
2019-05-29T16:27:43.899Z,40.50
2019-05-29T16:30:13.585Z,41.00
2019-05-29T16:32:42.275Z,40.70
2019-05-29T16:35:12.937Z,40.80
2019-05-29T16:37:41.653Z,40.40
2019-05-29T16:40:11.890Z,40.60
2019-05-29T16:42:40.620Z,40.50
2019-05-29T16:45:12.065Z,40.40
2019-05-29T16:47:41.088Z,40.60
2019-05-29T16:50:10.790Z,41.00
2019-05-29T16:52:39.242Z,40.80
2019-05-29T16:55:08.177Z,40.90
2019-05-29T16:57:36.865Z,41.30
2019-05-29T17:00:09.447Z,40.90
2019-05-29T17:02:38.651Z,40.60
2019-05-29T17:05:07.502Z,40.80
2019-05-29T17:07:36.089Z,40.80
2019-05-29T17:10:06.625Z,40.90
2019-05-29T17:12:35.047Z,41.50
2019-05-29T17:15:05.053Z,41.40
2019-05-29T17:17:33.463Z,41.40
2019-05-29T17:20:02.590Z,41.70
2019-05-29T17:22:31.440Z,41.90
2019-05-29T17:24:59.834Z,42.40
2019-05-29T17:27:29.113Z,42.10
2019-05-29T17:29:57.938Z,42.00
2019-05-29T17:32:26.692Z,42.00
2019-05-29T17:34:55.089Z,42.30
2019-05-29T17:37:23.778Z,42.30
2019-05-29T17:39:52.175Z,42.60
2019-05-29T17:42:20.666Z,43.10
2019-05-29T17:44:49.119Z,43.60
2019-05-29T17:47:17.800Z,44.00
2019-05-29T17:49:47.025Z,44.40
2019-05-29T17:52:15.771Z,44.90
2019-05-29T17:54:44.276Z,44.90
2019-05-29T17:57:12.654Z,45.00
2019-05-29T17:59:41.406Z,45.20
2019-05-29T18:02:09.896Z,45.70
2019-05-29T18:04:38.393Z,45.70
2019-05-29T18:07:06.860Z,45.60
2019-05-29T18:09:35.534Z,45.90
2019-05-29T18:12:04.004Z,46.00
2019-05-29T18:14:32.895Z,46.20
2019-05-29T18:17:01.281Z,46.20
2019-05-29T18:19:30.635Z,46.20
2019-05-29T18:21:59.150Z,46.30
2019-05-29T18:24:28.134Z,46.20
2019-05-29T18:26:59.026Z,46.30
2019-05-29T18:29:26.896Z,46.50
2019-05-29T18:31:55.457Z,46.80
2019-05-29T18:34:25.232Z,46.70
2019-05-29T18:36:53.756Z,46.60
2019-05-29T18:39:22.229Z,46.50
2019-05-29T18:41:50.634Z,46.50
2019-05-29T18:44:20.629Z,46.40
2019-05-29T18:46:49.223Z,46.40
2019-05-29T18:49:17.610Z,46.50
2019-05-29T18:51:46.862Z,46.80
2019-05-29T18:54:15.273Z,47.10
2019-05-29T18:56:43.700Z,47.30
2019-05-29T18:59:12.199Z,47.60
2019-05-29T19:01:42.120Z,47.90
2019-05-29T19:04:10.494Z,48.30
2019-05-29T19:06:40.903Z,48.60
2019-05-29T19:09:09.688Z,49.00
2019-05-29T19:11:38.092Z,49.40
2019-05-29T19:14:06.585Z,49.70
2019-05-29T19:16:39.249Z,49.90
2019-05-29T19:19:06.033Z,50.00
2019-05-29T19:21:34.531Z,50.20
2019-05-29T19:24:02.958Z,50.40
2019-05-29T19:26:36.291Z,50.60
2019-05-29T19:29:02.003Z,50.60
2019-05-29T19:31:31.274Z,51.20
2019-05-29T19:33:59.867Z,51.70
2019-05-29T19:36:29.739Z,51.80
2019-05-29T19:38:58.713Z,53.20
2019-05-29T19:41:27.872Z,53.30
2019-05-29T19:43:56.461Z,52.90
2019-05-29T19:46:24.890Z,53.00
2019-05-29T19:48:53.690Z,54.40
2019-05-29T19:51:22.126Z,54.00
2019-05-29T19:53:50.595Z,54.50
2019-05-29T19:56:19.449Z,54.40
2019-05-29T19:58:47.876Z,53.80
2019-05-29T20:01:30.205Z,53.80
2019-05-29T20:03:46.510Z,53.90
2019-05-29T20:06:14.964Z,53.90
2019-05-29T20:08:43.623Z,54.10
2019-05-29T20:11:12.056Z,54.10
2019-05-29T20:13:40.579Z,54.30
2019-05-29T20:16:09.509Z,54.40
2019-05-29T20:18:38.981Z,54.40
2019-05-29T20:21:07.514Z,54.60
2019-05-29T20:23:36.771Z,54.80
2019-05-29T20:26:05.868Z,55.00
2019-05-29T20:28:36.118Z,55.10
2019-05-29T20:31:05.223Z,55.30
2019-05-29T20:33:34.539Z,55.60
2019-05-29T20:36:03.024Z,56.00
2019-05-29T20:38:31.531Z,56.30
2019-05-29T20:41:00.392Z,56.60
2019-05-29T20:43:28.820Z,57.00
2019-05-29T20:45:57.454Z,57.50
2019-05-29T20:48:25.894Z,58.50
2019-05-29T20:50:54.355Z,58.60
2019-05-29T20:53:23.105Z,59.30
2019-05-29T20:55:51.829Z,59.30
2019-05-29T20:58:24.679Z,59.50
2019-05-29T21:00:50.829Z,59.60
2019-05-29T21:03:19.526Z,59.60
2019-05-29T21:05:48.259Z,59.40
2019-05-29T21:08:16.726Z,59.90
2019-05-29T21:10:45.245Z,60.20
2019-05-29T21:13:14.075Z,59.80
2019-05-29T21:15:43.730Z,59.90
2019-05-29T21:18:12.715Z,59.70
2019-05-29T21:20:42.652Z,59.70
2019-05-29T21:23:11.271Z,59.70
2019-05-29T21:25:40.709Z,59.70
2019-05-29T21:28:10.191Z,59.80
2019-05-29T21:30:39.495Z,59.80
2019-05-29T21:33:08.071Z,59.80
2019-05-29T21:35:36.611Z,59.90
2019-05-29T21:38:05.473Z,60.00
2019-05-29T21:40:34.467Z,60.10
2019-05-29T21:43:02.973Z,60.10
2019-05-29T21:45:31.429Z,60.30
2019-05-29T21:48:00.344Z,60.30
2019-05-29T21:50:29.090Z,60.50
2019-05-29T21:52:57.502Z,60.70
2019-05-29T21:55:26.418Z,60.30
2019-05-29T21:57:55.196Z,60.40
2019-05-29T22:00:37.884Z,60.40
2019-05-29T22:03:06.594Z,60.50
2019-05-29T22:05:35.047Z,60.30
2019-05-29T22:08:03.505Z,60.60
2019-05-29T22:10:32.528Z,60.60
2019-05-29T22:13:01.673Z,60.80
2019-05-29T22:15:30.192Z,61.20
2019-05-29T22:17:59.200Z,61.20
2019-05-29T22:20:27.782Z,60.90
2019-05-29T22:22:57.182Z,61.20
2019-05-29T22:25:25.833Z,61.00
2019-05-29T22:27:55.471Z,61.00
2019-05-29T22:30:24.327Z,61.40
2019-05-29T22:32:53.321Z,61.00
2019-05-29T22:35:22.827Z,61.20
2019-05-29T22:37:51.548Z,61.00
2019-05-29T22:40:20.760Z,61.00
2019-05-29T22:42:49.192Z,61.20
2019-05-29T22:45:18.233Z,60.90
2019-05-29T22:47:46.742Z,60.80
2019-05-29T22:50:15.239Z,60.90
2019-05-29T22:52:44.598Z,61.60
2019-05-29T22:55:13.572Z,61.70
2019-05-29T22:57:42.436Z,61.70
2019-05-29T23:00:11.364Z,61.90
2019-05-29T23:02:39.795Z,62.20
2019-05-29T23:05:08.676Z,62.30
2019-05-29T23:07:37.146Z,61.90
2019-05-29T23:10:08.047Z,62.00
2019-05-29T23:12:36.899Z,62.70
2019-05-29T23:15:07.345Z,62.70
2019-05-29T23:17:35.879Z,62.90
2019-05-29T23:20:06.658Z,63.30
2019-05-29T23:22:35.233Z,63.40
2019-05-29T23:25:04.537Z,63.70
2019-05-29T23:27:33.546Z,63.90
2019-05-29T23:30:03.299Z,64.00
2019-05-29T23:32:32.066Z,64.00
2019-05-29T23:35:01.306Z,64.30
2019-05-29T23:37:29.833Z,64.10
2019-05-29T23:39:59.297Z,63.50
2019-05-29T23:42:27.778Z,64.10
2019-05-29T23:44:57.552Z,64.10
2019-05-29T23:47:26.163Z,64.20
2019-05-29T23:49:55.505Z,64.40
2019-05-29T23:52:24.097Z,64.30
2019-05-29T23:54:53.563Z,64.60
2019-05-29T23:57:22.410Z,64.50
